sensor_id;sensor_type;location;lat;lon;timestamp;P1;durP1;ratioP1;P2;durP2;ratioP2
27977;SDS011;15314;49.248;6.968;2023-05-20T00:00:45;6.32;;;6.03;;
27977;SDS011;15314;49.248;6.968;2023-05-20T00:01:49;7.78;;;6.88;;
27977;SDS011;15314;49.248;6.968;2023-05-20T00:02:49;6.90;;;6.40;;
27977;SDS011;15314;49.248;6.968;2023-05-20T00:03:50;7.10;;;6.70;;
27977;SDS011;15314;49.248;6.968;2023-05-20T00:04:51;7.50;;;7.00;;
27977;SDS011;15314;49.248;6.968;2023-05-20T00:05:51;7.50;;;6.93;;
27977;SDS011;15314;49.248;6.968;2023-05-20T00:06:52;6.90;;;6.50;;
27977;SDS011;15314;49.248;6.968;2023-05-20T00:07:53;7.40;;;6.63;;
27977;SDS011;15314;49.248;6.968;2023-05-20T00:08:54;7.10;;;6.55;;
27977;SDS011;15314;49.248;6.968;2023-05-20T00:09:55;7.80;;;6.85;;
27977;SDS011;15314;49.248;6.968;2023-05-20T00:10:55;7.07;;;6.68;;
27977;SDS011;15314;49.248;6.968;2023-05-20T00:11:56;6.53;;;6.13;;
27977;SDS011;15314;49.248;6.968;2023-05-20T00:12:56;7.30;;;6.80;;
27977;SDS011;15314;49.248;6.968;2023-05-20T00:13:57;7.03;;;6.32;;
27977;SDS011;15314;49.248;6.968;2023-05-20T00:14:58;6.97;;;6.57;;
27977;SDS011;15314;49.248;6.968;2023-05-20T00:15:58;6.93;;;6.30;;
27977;SDS011;15314;49.248;6.968;2023-05-20T00:16:59;7.00;;;6.30;;
27977;SDS011;15314;49.248;6.968;2023-05-20T00:18:00;6.68;;;6.38;;
27977;SDS011;15314;49.248;6.968;2023-05-20T00:19:01;7.35;;;6.88;;
27977;SDS011;15314;49.248;6.968;2023-05-20T00:20:01;7.05;;;6.53;;
27977;SDS011;15314;49.248;6.968;2023-05-20T00:21:04;7.03;;;6.72;;
27977;SDS011;15314;49.248;6.968;2023-05-20T00:22:04;7.93;;;7.20;;
27977;SDS011;15314;49.248;6.968;2023-05-20T00:23:05;6.93;;;6.53;;
27977;SDS011;15314;49.248;6.968;2023-05-20T00:24:06;7.38;;;6.88;;
27977;SDS011;15314;49.248;6.968;2023-05-20T00:25:07;7.32;;;6.65;;
27977;SDS011;15314;49.248;6.968;2023-05-20T00:26:08;9.32;;;7.18;;
27977;SDS011;15314;49.248;6.968;2023-05-20T00:27:09;7.80;;;7.25;;
27977;SDS011;15314;49.248;6.968;2023-05-20T00:28:10;7.47;;;6.88;;
27977;SDS011;15314;49.248;6.968;2023-05-20T00:29:10;7.07;;;6.68;;
27977;SDS011;15314;49.248;6.968;2023-05-20T00:30:11;7.57;;;6.88;;
27977;SDS011;15314;49.248;6.968;2023-05-20T00:31:12;6.80;;;6.30;;
27977;SDS011;15314;49.248;6.968;2023-05-20T00:32:12;6.90;;;6.60;;
27977;SDS011;15314;49.248;6.968;2023-05-20T00:33:13;7.75;;;7.03;;
27977;SDS011;15314;49.248;6.968;2023-05-20T00:34:14;7.03;;;6.43;;
27977;SDS011;15314;49.248;6.968;2023-05-20T00:35:14;7.38;;;6.88;;
27977;SDS011;15314;49.248;6.968;2023-05-20T00:36:15;7.45;;;6.85;;
27977;SDS011;15314;49.248;6.968;2023-05-20T00:37:16;7.97;;;7.05;;
27977;SDS011;15314;49.248;6.968;2023-05-20T00:38:16;6.95;;;6.47;;
27977;SDS011;15314;49.248;6.968;2023-05-20T00:39:17;7.30;;;6.80;;
27977;SDS011;15314;49.248;6.968;2023-05-20T00:40:17;7.97;;;6.80;;
27977;SDS011;15314;49.248;6.968;2023-05-20T00:41:19;7.07;;;6.57;;
27977;SDS011;15314;49.248;6.968;2023-05-20T00:42:24;7.72;;;7.20;;
27977;SDS011;15314;49.248;6.968;2023-05-20T00:43:26;7.68;;;7.10;;
27977;SDS011;15314;49.248;6.968;2023-05-20T00:44:27;7.60;;;7.00;;
27977;SDS011;15314;49.248;6.968;2023-05-20T00:45:28;13.52;;;7.47;;
27977;SDS011;15314;49.248;6.968;2023-05-20T00:46:29;7.60;;;7.10;;
27977;SDS011;15314;49.248;6.968;2023-05-20T00:47:33;7.78;;;7.03;;
27977;SDS011;15314;49.248;6.968;2023-05-20T00:48:39;7.82;;;7.32;;
27977;SDS011;15314;49.248;6.968;2023-05-20T00:49:41;7.65;;;6.97;;
27977;SDS011;15314;49.248;6.968;2023-05-20T00:50:43;7.68;;;7.20;;
27977;SDS011;15314;49.248;6.968;2023-05-20T00:51:44;7.88;;;7.28;;
27977;SDS011;15314;49.248;6.968;2023-05-20T00:52:45;7.55;;;7.05;;
27977;SDS011;15314;49.248;6.968;2023-05-20T00:53:47;7.15;;;6.78;;
27977;SDS011;15314;49.248;6.968;2023-05-20T00:54:48;7.82;;;7.03;;
27977;SDS011;15314;49.248;6.968;2023-05-20T00:55:50;7.50;;;6.90;;
27977;SDS011;15314;49.248;6.968;2023-05-20T00:56:51;8.00;;;7.30;;
27977;SDS011;15314;49.248;6.968;2023-05-20T00:57:52;7.53;;;6.85;;
27977;SDS011;15314;49.248;6.968;2023-05-20T00:58:53;7.60;;;6.70;;
27977;SDS011;15314;49.248;6.968;2023-05-20T00:59:54;7.05;;;6.60;;
27977;SDS011;15314;49.248;6.968;2023-05-20T01:00:56;6.82;;;6.35;;
27977;SDS011;15314;49.248;6.968;2023-05-20T01:01:56;7.20;;;6.55;;
27977;SDS011;15314;49.248;6.968;2023-05-20T01:02:58;7.30;;;6.63;;
27977;SDS011;15314;49.248;6.968;2023-05-20T01:03:59;7.30;;;6.60;;
27977;SDS011;15314;49.248;6.968;2023-05-20T01:05:00;7.25;;;6.57;;
27977;SDS011;15314;49.248;6.968;2023-05-20T01:06:01;7.00;;;6.60;;
27977;SDS011;15314;49.248;6.968;2023-05-20T01:07:02;6.70;;;6.40;;
27977;SDS011;15314;49.248;6.968;2023-05-20T01:08:04;7.07;;;6.55;;
27977;SDS011;15314;49.248;6.968;2023-05-20T01:09:05;7.43;;;6.82;;
27977;SDS011;15314;49.248;6.968;2023-05-20T01:10:07;9.07;;;7.07;;
27977;SDS011;15314;49.248;6.968;2023-05-20T01:11:16;7.57;;;6.93;;
27977;SDS011;15314;49.248;6.968;2023-05-20T01:12:41;7.57;;;7.17;;
27977;SDS011;15314;49.248;6.968;2023-05-20T01:13:50;8.50;;;6.93;;
27977;SDS011;15314;49.248;6.968;2023-05-20T01:15:07;10.10;;;7.25;;
27977;SDS011;15314;49.248;6.968;2023-05-20T01:16:09;7.07;;;6.75;;
27977;SDS011;15314;49.248;6.968;2023-05-20T01:17:10;7.40;;;6.90;;
27977;SDS011;15314;49.248;6.968;2023-05-20T01:18:12;7.53;;;6.97;;
27977;SDS011;15314;49.248;6.968;2023-05-20T01:19:21;7.68;;;6.97;;
27977;SDS011;15314;49.248;6.968;2023-05-20T01:20:33;7.65;;;7.15;;
27977;SDS011;15314;49.248;6.968;2023-05-20T01:21:34;7.82;;;7.07;;
27977;SDS011;15314;49.248;6.968;2023-05-20T01:22:37;7.60;;;7.00;;
27977;SDS011;15314;49.248;6.968;2023-05-20T01:23:39;7.45;;;6.95;;
27977;SDS011;15314;49.248;6.968;2023-05-20T01:24:44;8.02;;;7.53;;
27977;SDS011;15314;49.248;6.968;2023-05-20T01:25:47;7.97;;;7.38;;
27977;SDS011;15314;49.248;6.968;2023-05-20T01:26:47;7.68;;;7.18;;
27977;SDS011;15314;49.248;6.968;2023-05-20T01:27:49;7.60;;;6.93;;
27977;SDS011;15314;49.248;6.968;2023-05-20T01:28:51;7.18;;;6.57;;
27977;SDS011;15314;49.248;6.968;2023-05-20T01:29:52;7.57;;;6.97;;
27977;SDS011;15314;49.248;6.968;2023-05-20T01:30:53;7.43;;;6.93;;
27977;SDS011;15314;49.248;6.968;2023-05-20T01:31:57;7.30;;;6.75;;
27977;SDS011;15314;49.248;6.968;2023-05-20T01:33:01;7.18;;;6.78;;
27977;SDS011;15314;49.248;6.968;2023-05-20T01:34:06;7.60;;;6.95;;
27977;SDS011;15314;49.248;6.968;2023-05-20T01:35:07;6.88;;;6.30;;
27977;SDS011;15314;49.248;6.968;2023-05-20T01:36:08;6.53;;;5.95;;
27977;SDS011;15314;49.248;6.968;2023-05-20T01:37:10;7.43;;;6.75;;
27977;SDS011;15314;49.248;6.968;2023-05-20T01:38:11;7.10;;;6.50;;
27977;SDS011;15314;49.248;6.968;2023-05-20T01:39:14;7.10;;;6.55;;
27977;SDS011;15314;49.248;6.968;2023-05-20T01:40:16;7.60;;;7.03;;
27977;SDS011;15314;49.248;6.968;2023-05-20T01:41:17;8.35;;;6.82;;
27977;SDS011;15314;49.248;6.968;2023-05-20T01:42:19;7.93;;;7.22;;
27977;SDS011;15314;49.248;6.968;2023-05-20T01:43:21;7.18;;;6.78;;
27977;SDS011;15314;49.248;6.968;2023-05-20T01:44:24;7.05;;;6.45;;
27977;SDS011;15314;49.248;6.968;2023-05-20T01:45:25;7.32;;;6.72;;
27977;SDS011;15314;49.248;6.968;2023-05-20T01:46:26;6.40;;;6.05;;
27977;SDS011;15314;49.248;6.968;2023-05-20T01:47:26;7.45;;;6.88;;
27977;SDS011;15314;49.248;6.968;2023-05-20T01:48:27;7.43;;;6.88;;
27977;SDS011;15314;49.248;6.968;2023-05-20T01:49:27;7.28;;;6.63;;
27977;SDS011;15314;49.248;6.968;2023-05-20T01:50:28;7.18;;;6.68;;
27977;SDS011;15314;49.248;6.968;2023-05-20T01:51:29;7.05;;;6.65;;
27977;SDS011;15314;49.248;6.968;2023-05-20T01:52:32;7.47;;;6.97;;
27977;SDS011;15314;49.248;6.968;2023-05-20T01:53:33;7.20;;;6.80;;
27977;SDS011;15314;49.248;6.968;2023-05-20T01:54:33;7.28;;;6.78;;
27977;SDS011;15314;49.248;6.968;2023-05-20T01:55:34;7.45;;;6.90;;
27977;SDS011;15314;49.248;6.968;2023-05-20T01:56:35;7.63;;;7.05;;
27977;SDS011;15314;49.248;6.968;2023-05-20T01:57:35;6.90;;;6.47;;
27977;SDS011;15314;49.248;6.968;2023-05-20T01:58:36;7.63;;;6.97;;
27977;SDS011;15314;49.248;6.968;2023-05-20T01:59:37;7.18;;;6.57;;
27977;SDS011;15314;49.248;6.968;2023-05-20T02:00:38;7.80;;;7.07;;
27977;SDS011;15314;49.248;6.968;2023-05-20T02:01:39;7.55;;;6.97;;
27977;SDS011;15314;49.248;6.968;2023-05-20T02:02:39;7.95;;;7.15;;
27977;SDS011;15314;49.248;6.968;2023-05-20T02:03:40;7.82;;;7.40;;
27977;SDS011;15314;49.248;6.968;2023-05-20T02:04:44;7.32;;;6.93;;
27977;SDS011;15314;49.248;6.968;2023-05-20T02:05:48;7.75;;;7.15;;
27977;SDS011;15314;49.248;6.968;2023-05-20T02:06:49;9.40;;;7.22;;
27977;SDS011;15314;49.248;6.968;2023-05-20T02:07:49;8.75;;;7.05;;
27977;SDS011;15314;49.248;6.968;2023-05-20T02:08:50;7.63;;;7.03;;
27977;SDS011;15314;49.248;6.968;2023-05-20T02:09:51;7.57;;;6.88;;
27977;SDS011;15314;49.248;6.968;2023-05-20T02:10:51;7.68;;;7.07;;
27977;SDS011;15314;49.248;6.968;2023-05-20T02:11:52;7.40;;;7.00;;
27977;SDS011;15314;49.248;6.968;2023-05-20T02:12:52;6.95;;;6.43;;
27977;SDS011;15314;49.248;6.968;2023-05-20T02:13:53;7.22;;;6.72;;
27977;SDS011;15314;49.248;6.968;2023-05-20T02:14:54;7.22;;;6.82;;
27977;SDS011;15314;49.248;6.968;2023-05-20T02:15:55;7.93;;;7.40;;
27977;SDS011;15314;49.248;6.968;2023-05-20T02:16:55;7.53;;;6.88;;
27977;SDS011;15314;49.248;6.968;2023-05-20T02:17:56;6.78;;;6.47;;
27977;SDS011;15314;49.248;6.968;2023-05-20T02:18:57;7.78;;;7.10;;
27977;SDS011;15314;49.248;6.968;2023-05-20T02:19:57;7.80;;;7.20;;
27977;SDS011;15314;49.248;6.968;2023-05-20T02:21:04;7.20;;;6.70;;
27977;SDS011;15314;49.248;6.968;2023-05-20T02:22:05;7.35;;;6.95;;
27977;SDS011;15314;49.248;6.968;2023-05-20T02:23:06;7.75;;;7.20;;
27977;SDS011;15314;49.248;6.968;2023-05-20T02:24:07;7.88;;;7.30;;
27977;SDS011;15314;49.248;6.968;2023-05-20T02:25:08;7.43;;;6.88;;
27977;SDS011;15314;49.248;6.968;2023-05-20T02:26:09;7.88;;;7.38;;
27977;SDS011;15314;49.248;6.968;2023-05-20T02:27:10;7.38;;;6.85;;
27977;SDS011;15314;49.248;6.968;2023-05-20T02:28:10;9.07;;;6.72;;
27977;SDS011;15314;49.248;6.968;2023-05-20T02:29:11;7.28;;;6.78;;
27977;SDS011;15314;49.248;6.968;2023-05-20T02:30:13;7.35;;;6.88;;
27977;SDS011;15314;49.248;6.968;2023-05-20T02:31:14;7.68;;;7.07;;
27977;SDS011;15314;49.248;6.968;2023-05-20T02:32:15;8.15;;;7.57;;
27977;SDS011;15314;49.248;6.968;2023-05-20T02:33:16;8.20;;;7.50;;
27977;SDS011;15314;49.248;6.968;2023-05-20T02:34:17;8.05;;;7.30;;
27977;SDS011;15314;49.248;6.968;2023-05-20T02:35:17;7.70;;;7.20;;
27977;SDS011;15314;49.248;6.968;2023-05-20T02:36:18;7.65;;;7.13;;
27977;SDS011;15314;49.248;6.968;2023-05-20T02:37:19;7.95;;;7.35;;
27977;SDS011;15314;49.248;6.968;2023-05-20T02:38:19;7.68;;;7.18;;
27977;SDS011;15314;49.248;6.968;2023-05-20T02:39:20;7.50;;;6.95;;
27977;SDS011;15314;49.248;6.968;2023-05-20T02:40:21;7.65;;;7.03;;
27977;SDS011;15314;49.248;6.968;2023-05-20T02:41:22;7.25;;;6.75;;
27977;SDS011;15314;49.248;6.968;2023-05-20T02:42:23;8.07;;;7.28;;
27977;SDS011;15314;49.248;6.968;2023-05-20T02:43:23;8.10;;;7.47;;
27977;SDS011;15314;49.248;6.968;2023-05-20T02:44:25;6.93;;;6.50;;
27977;SDS011;15314;49.248;6.968;2023-05-20T02:45:25;7.40;;;7.00;;
27977;SDS011;15314;49.248;6.968;2023-05-20T02:46:26;8.18;;;7.38;;
27977;SDS011;15314;49.248;6.968;2023-05-20T02:47:27;7.72;;;7.13;;
27977;SDS011;15314;49.248;6.968;2023-05-20T02:48:28;7.10;;;6.70;;
27977;SDS011;15314;49.248;6.968;2023-05-20T02:49:28;7.80;;;7.25;;
27977;SDS011;15314;49.248;6.968;2023-05-20T02:50:29;8.35;;;7.53;;
27977;SDS011;15314;49.248;6.968;2023-05-20T02:51:30;7.88;;;7.38;;
27977;SDS011;15314;49.248;6.968;2023-05-20T02:52:33;8.05;;;7.38;;
27977;SDS011;15314;49.248;6.968;2023-05-20T02:53:34;8.38;;;7.85;;
27977;SDS011;15314;49.248;6.968;2023-05-20T02:54:34;8.30;;;7.50;;
27977;SDS011;15314;49.248;6.968;2023-05-20T02:55:35;7.78;;;7.18;;
27977;SDS011;15314;49.248;6.968;2023-05-20T02:56:36;8.18;;;7.50;;
27977;SDS011;15314;49.248;6.968;2023-05-20T02:57:37;7.68;;;7.03;;
27977;SDS011;15314;49.248;6.968;2023-05-20T02:58:37;8.48;;;7.93;;
27977;SDS011;15314;49.248;6.968;2023-05-20T02:59:38;9.18;;;8.32;;
27977;SDS011;15314;49.248;6.968;2023-05-20T03:00:39;7.53;;;7.07;;
27977;SDS011;15314;49.248;6.968;2023-05-20T03:01:40;8.40;;;7.90;;
27977;SDS011;15314;49.248;6.968;2023-05-20T03:02:41;7.90;;;7.40;;
27977;SDS011;15314;49.248;6.968;2023-05-20T03:03:41;9.07;;;7.88;;
27977;SDS011;15314;49.248;6.968;2023-05-20T03:04:42;8.00;;;7.55;;
27977;SDS011;15314;49.248;6.968;2023-05-20T03:05:45;7.68;;;7.25;;
27977;SDS011;15314;49.248;6.968;2023-05-20T03:06:46;9.15;;;8.43;;
27977;SDS011;15314;49.248;6.968;2023-05-20T03:07:46;8.43;;;7.55;;
27977;SDS011;15314;49.248;6.968;2023-05-20T03:08:47;8.95;;;8.05;;
27977;SDS011;15314;49.248;6.968;2023-05-20T03:09:48;8.93;;;8.02;;
27977;SDS011;15314;49.248;6.968;2023-05-20T03:10:49;8.07;;;7.57;;
27977;SDS011;15314;49.248;6.968;2023-05-20T03:11:50;7.85;;;7.20;;
27977;SDS011;15314;49.248;6.968;2023-05-20T03:12:50;7.45;;;6.95;;
27977;SDS011;15314;49.248;6.968;2023-05-20T03:13:51;7.00;;;6.70;;
27977;SDS011;15314;49.248;6.968;2023-05-20T03:14:52;7.68;;;6.93;;
27977;SDS011;15314;49.248;6.968;2023-05-20T03:15:54;7.57;;;7.07;;
27977;SDS011;15314;49.248;6.968;2023-05-20T03:16:55;8.32;;;7.53;;
27977;SDS011;15314;49.248;6.968;2023-05-20T03:17:55;7.95;;;7.25;;
27977;SDS011;15314;49.248;6.968;2023-05-20T03:18:56;7.90;;;7.13;;
27977;SDS011;15314;49.248;6.968;2023-05-20T03:19:57;7.45;;;6.95;;
27977;SDS011;15314;49.248;6.968;2023-05-20T03:20:57;7.50;;;6.90;;
27977;SDS011;15314;49.248;6.968;2023-05-20T03:21:58;7.75;;;7.15;;
27977;SDS011;15314;49.248;6.968;2023-05-20T03:22:59;7.15;;;6.75;;
27977;SDS011;15314;49.248;6.968;2023-05-20T03:24:01;8.30;;;7.60;;
27977;SDS011;15314;49.248;6.968;2023-05-20T03:25:01;7.80;;;7.35;;
27977;SDS011;15314;49.248;6.968;2023-05-20T03:26:03;7.40;;;6.60;;
27977;SDS011;15314;49.248;6.968;2023-05-20T03:27:05;7.65;;;7.15;;
27977;SDS011;15314;49.248;6.968;2023-05-20T03:28:06;7.45;;;6.85;;
27977;SDS011;15314;49.248;6.968;2023-05-20T03:29:07;9.52;;;7.53;;
27977;SDS011;15314;49.248;6.968;2023-05-20T03:30:09;7.13;;;6.60;;
27977;SDS011;15314;49.248;6.968;2023-05-20T03:31:10;8.18;;;7.45;;
27977;SDS011;15314;49.248;6.968;2023-05-20T03:32:10;7.75;;;7.22;;
27977;SDS011;15314;49.248;6.968;2023-05-20T03:33:11;7.32;;;6.93;;
27977;SDS011;15314;49.248;6.968;2023-05-20T03:34:11;7.55;;;6.90;;
27977;SDS011;15314;49.248;6.968;2023-05-20T03:35:12;7.85;;;7.18;;
27977;SDS011;15314;49.248;6.968;2023-05-20T03:36:13;7.60;;;7.10;;
27977;SDS011;15314;49.248;6.968;2023-05-20T03:37:14;8.25;;;7.53;;
27977;SDS011;15314;49.248;6.968;2023-05-20T03:38:14;7.97;;;7.47;;
27977;SDS011;15314;49.248;6.968;2023-05-20T03:39:16;7.72;;;7.22;;
27977;SDS011;15314;49.248;6.968;2023-05-20T03:40:16;7.55;;;7.05;;
27977;SDS011;15314;49.248;6.968;2023-05-20T03:41:17;8.13;;;7.35;;
27977;SDS011;15314;49.248;6.968;2023-05-20T03:42:17;7.90;;;7.10;;
27977;SDS011;15314;49.248;6.968;2023-05-20T03:43:18;7.80;;;7.07;;
27977;SDS011;15314;49.248;6.968;2023-05-20T03:44:19;9.07;;;7.10;;
27977;SDS011;15314;49.248;6.968;2023-05-20T03:45:20;7.85;;;7.22;;
27977;SDS011;15314;49.248;6.968;2023-05-20T03:46:20;9.63;;;7.10;;
27977;SDS011;15314;49.248;6.968;2023-05-20T03:47:21;7.43;;;6.90;;
27977;SDS011;15314;49.248;6.968;2023-05-20T03:48:21;8.20;;;7.50;;
27977;SDS011;15314;49.248;6.968;2023-05-20T03:49:22;7.80;;;7.28;;
27977;SDS011;15314;49.248;6.968;2023-05-20T03:50:23;7.05;;;6.65;;
27977;SDS011;15314;49.248;6.968;2023-05-20T03:51:23;7.00;;;6.60;;
27977;SDS011;15314;49.248;6.968;2023-05-20T03:52:24;8.10;;;7.10;;
27977;SDS011;15314;49.248;6.968;2023-05-20T03:53:25;7.47;;;6.90;;
27977;SDS011;15314;49.248;6.968;2023-05-20T03:54:26;8.35;;;7.60;;
27977;SDS011;15314;49.248;6.968;2023-05-20T03:55:28;7.78;;;7.07;;
27977;SDS011;15314;49.248;6.968;2023-05-20T03:56:29;8.32;;;7.75;;
27977;SDS011;15314;49.248;6.968;2023-05-20T03:57:30;7.80;;;7.28;;
27977;SDS011;15314;49.248;6.968;2023-05-20T03:58:31;15.57;;;7.32;;
27977;SDS011;15314;49.248;6.968;2023-05-20T03:59:32;7.68;;;7.18;;
27977;SDS011;15314;49.248;6.968;2023-05-20T04:00:32;8.18;;;7.57;;
27977;SDS011;15314;49.248;6.968;2023-05-20T04:01:33;7.90;;;7.30;;
27977;SDS011;15314;49.248;6.968;2023-05-20T04:02:33;7.13;;;6.72;;
27977;SDS011;15314;49.248;6.968;2023-05-20T04:03:34;8.40;;;7.68;;
27977;SDS011;15314;49.248;6.968;2023-05-20T04:04:35;8.07;;;7.28;;
27977;SDS011;15314;49.248;6.968;2023-05-20T04:05:35;8.30;;;7.70;;
27977;SDS011;15314;49.248;6.968;2023-05-20T04:06:36;8.18;;;7.57;;
27977;SDS011;15314;49.248;6.968;2023-05-20T04:07:37;8.20;;;7.50;;
27977;SDS011;15314;49.248;6.968;2023-05-20T04:08:37;8.57;;;7.82;;
27977;SDS011;15314;49.248;6.968;2023-05-20T04:09:38;9.30;;;8.60;;
27977;SDS011;15314;49.248;6.968;2023-05-20T04:10:41;10.93;;;8.30;;
27977;SDS011;15314;49.248;6.968;2023-05-20T04:11:42;9.70;;;8.70;;
27977;SDS011;15314;49.248;6.968;2023-05-20T04:12:43;9.70;;;8.85;;
27977;SDS011;15314;49.248;6.968;2023-05-20T04:13:44;9.23;;;8.52;;
27977;SDS011;15314;49.248;6.968;2023-05-20T04:14:44;9.80;;;9.00;;
27977;SDS011;15314;49.248;6.968;2023-05-20T04:15:45;10.98;;;8.55;;
27977;SDS011;15314;49.248;6.968;2023-05-20T04:16:46;9.27;;;8.50;;
27977;SDS011;15314;49.248;6.968;2023-05-20T04:17:49;8.85;;;8.25;;
27977;SDS011;15314;49.248;6.968;2023-05-20T04:18:51;9.27;;;8.40;;
27977;SDS011;15314;49.248;6.968;2023-05-20T04:19:52;8.57;;;7.90;;
27977;SDS011;15314;49.248;6.968;2023-05-20T04:20:53;9.43;;;8.75;;
27977;SDS011;15314;49.248;6.968;2023-05-20T04:21:55;9.25;;;8.65;;
27977;SDS011;15314;49.248;6.968;2023-05-20T04:22:56;9.52;;;8.93;;
27977;SDS011;15314;49.248;6.968;2023-05-20T04:23:57;9.10;;;8.55;;
27977;SDS011;15314;49.248;6.968;2023-05-20T04:24:57;9.85;;;8.98;;
27977;SDS011;15314;49.248;6.968;2023-05-20T04:25:58;9.27;;;8.57;;
27977;SDS011;15314;49.248;6.968;2023-05-20T04:27:01;8.63;;;8.13;;
27977;SDS011;15314;49.248;6.968;2023-05-20T04:28:02;9.93;;;9.07;;
27977;SDS011;15314;49.248;6.968;2023-05-20T04:29:03;9.45;;;8.65;;
27977;SDS011;15314;49.248;6.968;2023-05-20T04:30:04;9.27;;;8.52;;
27977;SDS011;15314;49.248;6.968;2023-05-20T04:31:06;8.88;;;8.23;;
27977;SDS011;15314;49.248;6.968;2023-05-20T04:32:07;8.93;;;8.23;;
27977;SDS011;15314;49.248;6.968;2023-05-20T04:33:10;9.23;;;8.45;;
27977;SDS011;15314;49.248;6.968;2023-05-20T04:34:11;8.95;;;8.35;;
27977;SDS011;15314;49.248;6.968;2023-05-20T04:35:12;10.02;;;8.23;;
27977;SDS011;15314;49.248;6.968;2023-05-20T04:36:14;8.75;;;8.13;;
27977;SDS011;15314;49.248;6.968;2023-05-20T04:37:15;8.65;;;8.02;;
27977;SDS011;15314;49.248;6.968;2023-05-20T04:38:15;8.73;;;8.13;;
27977;SDS011;15314;49.248;6.968;2023-05-20T04:39:16;8.93;;;8.23;;
27977;SDS011;15314;49.248;6.968;2023-05-20T04:40:18;8.75;;;8.15;;
27977;SDS011;15314;49.248;6.968;2023-05-20T04:41:20;9.00;;;8.27;;
27977;SDS011;15314;49.248;6.968;2023-05-20T04:42:20;9.32;;;8.63;;
27977;SDS011;15314;49.248;6.968;2023-05-20T04:43:21;8.75;;;8.20;;
27977;SDS011;15314;49.248;6.968;2023-05-20T04:44:22;8.85;;;8.23;;
27977;SDS011;15314;49.248;6.968;2023-05-20T04:45:24;8.85;;;8.27;;
27977;SDS011;15314;49.248;6.968;2023-05-20T04:46:25;9.35;;;8.57;;
27977;SDS011;15314;49.248;6.968;2023-05-20T04:47:27;8.52;;;7.88;;
27977;SDS011;15314;49.248;6.968;2023-05-20T04:48:31;8.93;;;8.30;;
27977;SDS011;15314;49.248;6.968;2023-05-20T04:49:32;8.45;;;7.65;;
27977;SDS011;15314;49.248;6.968;2023-05-20T04:50:33;8.85;;;8.25;;
27977;SDS011;15314;49.248;6.968;2023-05-20T04:51:34;9.77;;;8.05;;
27977;SDS011;15314;49.248;6.968;2023-05-20T04:52:35;8.48;;;7.50;;
27977;SDS011;15314;49.248;6.968;2023-05-20T04:53:37;8.80;;;8.02;;
27977;SDS011;15314;49.248;6.968;2023-05-20T04:54:39;8.15;;;7.75;;
27977;SDS011;15314;49.248;6.968;2023-05-20T04:55:40;9.07;;;8.27;;
27977;SDS011;15314;49.248;6.968;2023-05-20T04:56:42;19.35;;;8.32;;
27977;SDS011;15314;49.248;6.968;2023-05-20T04:57:43;9.52;;;8.50;;
27977;SDS011;15314;49.248;6.968;2023-05-20T04:58:43;8.88;;;8.23;;
27977;SDS011;15314;49.248;6.968;2023-05-20T04:59:44;9.57;;;8.88;;
27977;SDS011;15314;49.248;6.968;2023-05-20T05:00:45;9.23;;;8.55;;
27977;SDS011;15314;49.248;6.968;2023-05-20T05:01:45;9.55;;;8.85;;
27977;SDS011;15314;49.248;6.968;2023-05-20T05:02:46;9.00;;;8.50;;
27977;SDS011;15314;49.248;6.968;2023-05-20T05:03:47;8.60;;;8.05;;
27977;SDS011;15314;49.248;6.968;2023-05-20T05:04:47;9.48;;;8.73;;
27977;SDS011;15314;49.248;6.968;2023-05-20T05:05:48;8.82;;;8.30;;
27977;SDS011;15314;49.248;6.968;2023-05-20T05:06:49;9.20;;;8.60;;
27977;SDS011;15314;49.248;6.968;2023-05-20T05:07:49;9.32;;;8.60;;
27977;SDS011;15314;49.248;6.968;2023-05-20T05:08:50;9.13;;;8.13;;
27977;SDS011;15314;49.248;6.968;2023-05-20T05:09:51;8.90;;;8.40;;
27977;SDS011;15314;49.248;6.968;2023-05-20T05:10:51;9.15;;;8.50;;
27977;SDS011;15314;49.248;6.968;2023-05-20T05:11:52;8.85;;;8.13;;
27977;SDS011;15314;49.248;6.968;2023-05-20T05:12:53;9.80;;;8.90;;
27977;SDS011;15314;49.248;6.968;2023-05-20T05:13:53;8.60;;;8.07;;
27977;SDS011;15314;49.248;6.968;2023-05-20T05:14:54;8.63;;;8.13;;
27977;SDS011;15314;49.248;6.968;2023-05-20T05:15:57;8.93;;;8.32;;
27977;SDS011;15314;49.248;6.968;2023-05-20T05:16:58;8.60;;;8.10;;
27977;SDS011;15314;49.248;6.968;2023-05-20T05:18:00;8.68;;;8.18;;
27977;SDS011;15314;49.248;6.968;2023-05-20T05:19:01;9.23;;;8.63;;
27977;SDS011;15314;49.248;6.968;2023-05-20T05:20:01;9.15;;;8.55;;
27977;SDS011;15314;49.248;6.968;2023-05-20T05:21:02;9.77;;;9.18;;
27977;SDS011;15314;49.248;6.968;2023-05-20T05:22:04;9.40;;;8.60;;
27977;SDS011;15314;49.248;6.968;2023-05-20T05:23:05;8.90;;;8.20;;
27977;SDS011;15314;49.248;6.968;2023-05-20T05:24:06;9.40;;;8.63;;
27977;SDS011;15314;49.248;6.968;2023-05-20T05:25:07;8.68;;;8.18;;
27977;SDS011;15314;49.248;6.968;2023-05-20T05:26:08;8.93;;;8.43;;
27977;SDS011;15314;49.248;6.968;2023-05-20T05:27:09;9.38;;;8.68;;
27977;SDS011;15314;49.248;6.968;2023-05-20T05:28:09;9.10;;;8.60;;
27977;SDS011;15314;49.248;6.968;2023-05-20T05:29:10;9.00;;;8.32;;
27977;SDS011;15314;49.248;6.968;2023-05-20T05:30:11;9.23;;;8.52;;
27977;SDS011;15314;49.248;6.968;2023-05-20T05:31:11;8.68;;;8.23;;
27977;SDS011;15314;49.248;6.968;2023-05-20T05:32:12;8.68;;;8.18;;
27977;SDS011;15314;49.248;6.968;2023-05-20T05:33:13;8.48;;;7.93;;
27977;SDS011;15314;49.248;6.968;2023-05-20T05:34:14;8.90;;;8.35;;
27977;SDS011;15314;49.248;6.968;2023-05-20T05:35:15;8.60;;;8.00;;
27977;SDS011;15314;49.248;6.968;2023-05-20T05:36:16;8.52;;;8.02;;
27977;SDS011;15314;49.248;6.968;2023-05-20T05:37:16;8.65;;;8.15;;
27977;SDS011;15314;49.248;6.968;2023-05-20T05:38:17;9.02;;;8.43;;
27977;SDS011;15314;49.248;6.968;2023-05-20T05:39:17;9.52;;;8.30;;
27977;SDS011;15314;49.248;6.968;2023-05-20T05:40:18;8.60;;;7.80;;
27977;SDS011;15314;49.248;6.968;2023-05-20T05:41:19;8.63;;;8.02;;
27977;SDS011;15314;49.248;6.968;2023-05-20T05:42:20;8.70;;;7.82;;
27977;SDS011;15314;49.248;6.968;2023-05-20T05:43:21;8.80;;;8.20;;
27977;SDS011;15314;49.248;6.968;2023-05-20T05:44:21;8.60;;;7.90;;
27977;SDS011;15314;49.248;6.968;2023-05-20T05:45:22;8.75;;;8.15;;
27977;SDS011;15314;49.248;6.968;2023-05-20T05:46:23;8.68;;;8.13;;
27977;SDS011;15314;49.248;6.968;2023-05-20T05:47:23;9.00;;;8.30;;
27977;SDS011;15314;49.248;6.968;2023-05-20T05:48:28;9.90;;;9.10;;
27977;SDS011;15314;49.248;6.968;2023-05-20T05:49:29;9.20;;;8.70;;
27977;SDS011;15314;49.248;6.968;2023-05-20T05:50:30;9.90;;;9.07;;
27977;SDS011;15314;49.248;6.968;2023-05-20T05:51:30;8.75;;;8.15;;
27977;SDS011;15314;49.248;6.968;2023-05-20T05:52:31;9.77;;;8.70;;
27977;SDS011;15314;49.248;6.968;2023-05-20T05:53:32;9.20;;;8.70;;
27977;SDS011;15314;49.248;6.968;2023-05-20T05:54:32;9.57;;;8.68;;
27977;SDS011;15314;49.248;6.968;2023-05-20T05:55:33;11.48;;;8.93;;
27977;SDS011;15314;49.248;6.968;2023-05-20T05:56:33;8.90;;;8.25;;
27977;SDS011;15314;49.248;6.968;2023-05-20T05:57:34;8.40;;;7.70;;
27977;SDS011;15314;49.248;6.968;2023-05-20T05:58:35;9.13;;;8.45;;
27977;SDS011;15314;49.248;6.968;2023-05-20T05:59:36;9.15;;;8.60;;
27977;SDS011;15314;49.248;6.968;2023-05-20T06:00:36;8.27;;;7.70;;
27977;SDS011;15314;49.248;6.968;2023-05-20T06:01:37;8.75;;;8.05;;
27977;SDS011;15314;49.248;6.968;2023-05-20T06:02:37;9.68;;;8.80;;
27977;SDS011;15314;49.248;6.968;2023-05-20T06:03:38;9.35;;;8.57;;
27977;SDS011;15314;49.248;6.968;2023-05-20T06:04:39;8.73;;;8.23;;
27977;SDS011;15314;49.248;6.968;2023-05-20T06:05:43;9.38;;;8.70;;
27977;SDS011;15314;49.248;6.968;2023-05-20T06:06:45;8.65;;;8.10;;
27977;SDS011;15314;49.248;6.968;2023-05-20T06:07:47;8.98;;;8.45;;
27977;SDS011;15314;49.248;6.968;2023-05-20T06:08:48;10.10;;;7.95;;
27977;SDS011;15314;49.248;6.968;2023-05-20T06:09:48;8.63;;;8.10;;